createdAt,value
2023-05-04T00:00:10.628Z,12.96
2023-05-04T00:02:37.552Z,12.87
2023-05-04T00:05:06.169Z,12.91
2023-05-04T00:07:33.153Z,12.88
2023-05-04T00:10:01.192Z,12.78
2023-05-04T00:12:28.513Z,12.74
2023-05-04T00:14:55.496Z,12.81
2023-05-04T00:17:22.466Z,12.73
2023-05-04T00:19:49.759Z,12.76
2023-05-04T00:22:16.995Z,12.67
2023-05-04T00:24:44.431Z,12.76
2023-05-04T00:27:11.608Z,12.75
2023-05-04T00:29:38.495Z,12.70
2023-05-04T00:32:06.300Z,12.68
2023-05-04T00:34:36.158Z,12.64
2023-05-04T00:37:02.993Z,12.58
2023-05-04T00:39:29.786Z,12.53
2023-05-04T00:41:56.623Z,12.46
2023-05-04T00:44:24.024Z,12.47
2023-05-04T00:46:55.093Z,12.36
2023-05-04T00:49:22.757Z,12.42
2023-05-04T00:51:50.868Z,12.40
2023-05-04T00:54:18.642Z,12.36
2023-05-04T00:56:47.042Z,12.35
2023-05-04T00:59:13.977Z,12.32
2023-05-04T01:01:41.730Z,12.33
2023-05-04T01:04:09.045Z,12.31
2023-05-04T01:06:48.478Z,12.31
2023-05-04T01:09:31.922Z,12.26
2023-05-04T01:12:07.830Z,12.22
2023-05-04T01:14:35.909Z,12.11
2023-05-04T01:17:06.169Z,12.16
2023-05-04T01:19:34.705Z,12.15
2023-05-04T01:22:01.554Z,12.10
2023-05-04T01:24:29.629Z,12.08
2023-05-04T01:27:04.976Z,12.06
2023-05-04T01:30:22.226Z,12.05
2023-05-04T01:32:50.670Z,12.03
2023-05-04T01:35:17.754Z,12.01
2023-05-04T01:37:44.663Z,12.01
2023-05-04T01:40:12.081Z,11.96
2023-05-04T01:42:38.878Z,12.02
2023-05-04T01:45:07.912Z,11.99
2023-05-04T01:47:34.840Z,11.94
2023-05-04T01:50:01.912Z,11.96
2023-05-04T01:52:28.895Z,11.93
2023-05-04T01:54:55.791Z,11.93
2023-05-04T01:57:22.778Z,11.92
2023-05-04T01:59:49.776Z,11.88
2023-05-04T02:02:16.577Z,11.86
2023-05-04T02:04:43.581Z,11.84
2023-05-04T02:07:10.395Z,11.81
2023-05-04T02:09:37.198Z,11.79
2023-05-04T02:12:04.245Z,11.77
2023-05-04T02:14:31.194Z,11.76
2023-05-04T02:16:58.039Z,11.73
2023-05-04T02:19:24.868Z,11.75
2023-05-04T02:21:52.727Z,11.60
2023-05-04T02:24:19.526Z,11.70
2023-05-04T02:26:46.387Z,11.75
2023-05-04T02:29:13.221Z,11.73
2023-05-04T02:31:40.018Z,11.71
2023-05-04T02:34:06.887Z,11.71
2023-05-04T02:36:33.679Z,11.71
2023-05-04T02:39:00.574Z,11.64
2023-05-04T02:41:27.475Z,11.62
2023-05-04T02:43:54.399Z,11.55
2023-05-04T02:46:21.286Z,11.51
2023-05-04T02:48:48.099Z,11.45
2023-05-04T02:51:14.893Z,11.51
2023-05-04T02:53:41.744Z,11.45
2023-05-04T02:56:08.593Z,11.43
2023-05-04T02:58:35.421Z,11.42
2023-05-04T03:01:02.354Z,11.38
2023-05-04T03:03:29.156Z,11.29
2023-05-04T03:05:55.934Z,11.27
2023-05-04T03:08:22.709Z,11.24
2023-05-04T03:10:49.528Z,11.26
2023-05-04T03:13:16.626Z,11.23
2023-05-04T03:15:43.610Z,11.03
2023-05-04T03:18:10.467Z,11.16
2023-05-04T03:20:37.400Z,11.11
2023-05-04T03:23:04.194Z,11.13
2023-05-04T03:25:30.998Z,11.12
2023-05-04T03:27:57.810Z,11.13
2023-05-04T03:30:24.652Z,11.07
2023-05-04T03:32:51.480Z,11.06
2023-05-04T03:35:24.284Z,10.96
2023-05-04T03:37:51.943Z,10.95
2023-05-04T03:40:22.813Z,11.03
2023-05-04T03:42:51.509Z,11.01
2023-05-04T03:45:18.443Z,10.98
2023-05-04T03:47:45.269Z,10.99
2023-05-04T03:50:13.238Z,10.99
2023-05-04T03:52:40.105Z,10.98
2023-05-04T03:55:07.642Z,10.96
2023-05-04T03:57:34.461Z,10.96
2023-05-04T04:00:01.259Z,10.99
2023-05-04T04:02:28.183Z,10.89
2023-05-04T04:04:55.034Z,10.89
2023-05-04T04:07:21.842Z,10.89
2023-05-04T04:09:48.747Z,10.88
2023-05-04T04:12:20.185Z,10.73
2023-05-04T04:14:48.843Z,10.84
2023-05-04T04:17:15.676Z,10.74
2023-05-04T04:19:42.482Z,10.82
2023-05-04T04:22:09.282Z,10.79
2023-05-04T04:24:36.057Z,10.70
2023-05-04T04:27:02.904Z,10.74
2023-05-04T04:29:29.698Z,10.75
2023-05-04T04:31:56.752Z,10.71
2023-05-04T04:34:23.894Z,10.66
2023-05-04T04:36:51.238Z,10.68
2023-05-04T04:39:18.113Z,10.58
2023-05-04T04:41:44.972Z,10.66
2023-05-04T04:44:11.835Z,10.60
2023-05-04T04:46:38.867Z,10.53
2023-05-04T04:49:05.803Z,10.56
2023-05-04T04:51:32.661Z,10.51
2023-05-04T04:53:59.494Z,10.59
2023-05-04T04:56:26.421Z,10.54
2023-05-04T04:58:53.332Z,10.57
2023-05-04T05:01:20.149Z,10.62
2023-05-04T05:03:47.429Z,10.56
2023-05-04T05:06:14.266Z,10.63
2023-05-04T05:08:42.602Z,10.65
2023-05-04T05:11:10.370Z,10.68
2023-05-04T05:13:37.189Z,10.63
2023-05-04T05:16:05.973Z,10.62
2023-05-04T05:18:32.969Z,10.61
2023-05-04T05:21:00.753Z,10.70
2023-05-04T05:23:27.698Z,10.68
2023-05-04T05:25:55.755Z,10.64
2023-05-04T05:28:22.979Z,10.77
2023-05-04T05:30:51.874Z,10.75
2023-05-04T05:33:18.867Z,10.80
2023-05-04T05:35:45.732Z,10.81
2023-05-04T05:38:12.700Z,10.84
2023-05-04T05:40:39.514Z,10.79
2023-05-04T05:43:06.585Z,10.86
2023-05-04T05:45:33.426Z,10.90
2023-05-04T05:48:00.224Z,10.86
2023-05-04T05:50:27.091Z,10.97
2023-05-04T05:52:53.929Z,10.97
2023-05-04T05:55:20.730Z,11.02
2023-05-04T05:57:47.610Z,10.98
2023-05-04T06:00:15.183Z,11.12
2023-05-04T06:02:42.102Z,11.18
2023-05-04T06:05:10.419Z,11.22
2023-05-04T06:07:37.245Z,11.25
2023-05-04T06:10:04.665Z,11.24
2023-05-04T06:12:31.815Z,11.32
2023-05-04T06:14:58.726Z,11.34
2023-05-04T06:17:25.596Z,11.34
2023-05-04T06:19:52.663Z,11.36
2023-05-04T06:22:19.532Z,11.29
2023-05-04T06:24:46.565Z,11.41
2023-05-04T06:27:13.434Z,11.39
2023-05-04T06:29:41.413Z,11.47
2023-05-04T06:32:11.642Z,11.35
2023-05-04T06:34:38.478Z,11.54
2023-05-04T06:37:05.248Z,11.60
2023-05-04T06:39:32.082Z,11.63
2023-05-04T06:41:59.542Z,11.67
2023-05-04T06:44:26.447Z,11.61
2023-05-04T06:46:53.854Z,11.74
2023-05-04T06:49:20.849Z,11.79
2023-05-04T06:51:47.876Z,11.81
2023-05-04T06:54:14.728Z,11.87
2023-05-04T06:56:42.157Z,11.91
2023-05-04T06:59:09.963Z,11.91
2023-05-04T07:01:37.503Z,12.05
2023-05-04T07:04:04.787Z,12.08
2023-05-04T07:06:32.181Z,12.12
2023-05-04T07:08:59.412Z,12.17
2023-05-04T07:11:27.863Z,12.10
2023-05-04T07:13:55.974Z,12.22
2023-05-04T07:16:23.077Z,12.29
2023-05-04T07:18:49.990Z,12.32
2023-05-04T07:21:27.661Z,12.33
2023-05-04T07:23:55.674Z,12.47
2023-05-04T07:26:23.171Z,12.44
2023-05-04T07:28:50.028Z,12.53
2023-05-04T07:31:16.958Z,12.54
2023-05-04T07:33:43.794Z,12.66
2023-05-04T07:36:10.936Z,12.67
2023-05-04T07:38:37.778Z,12.77
2023-05-04T07:41:04.866Z,12.80
2023-05-04T07:43:31.725Z,12.87
2023-05-04T07:45:58.625Z,12.86
2023-05-04T07:48:26.660Z,13.00
2023-05-04T07:50:54.639Z,13.05
2023-05-04T07:53:21.853Z,13.20
2023-05-04T07:55:48.784Z,13.20
2023-05-04T07:58:16.756Z,13.29
2023-05-04T08:00:43.698Z,13.24
2023-05-04T08:03:10.784Z,13.50
2023-05-04T08:05:37.745Z,13.45
2023-05-04T08:08:04.665Z,13.54
2023-05-04T08:10:31.511Z,13.53
2023-05-04T08:12:58.451Z,13.64
2023-05-04T08:15:25.482Z,13.69
2023-05-04T08:17:52.467Z,13.73
2023-05-04T08:20:19.710Z,13.80
2023-05-04T08:22:47.436Z,13.85
2023-05-04T08:25:14.294Z,13.89
2023-05-04T08:27:41.155Z,13.99
2023-05-04T08:30:10.129Z,14.05
2023-05-04T08:32:37.012Z,14.14
2023-05-04T08:35:04.250Z,14.20
2023-05-04T08:37:31.293Z,14.24
2023-05-04T08:39:58.168Z,14.35
2023-05-04T08:42:32.804Z,14.35
2023-05-04T08:45:32.960Z,14.48
2023-05-04T08:48:00.292Z,14.52
2023-05-04T08:50:27.227Z,14.65
2023-05-04T08:52:54.235Z,14.70
2023-05-04T08:55:21.408Z,14.62
2023-05-04T08:57:50.653Z,14.84
2023-05-04T09:00:19.923Z,14.90
2023-05-04T09:02:48.432Z,14.97
2023-05-04T09:05:15.939Z,15.01
2023-05-04T09:07:42.856Z,15.08
2023-05-04T09:10:10.207Z,15.11
2023-05-04T09:12:37.851Z,15.12
2023-05-04T09:15:18.814Z,15.25
2023-05-04T09:18:06.771Z,15.27
2023-05-04T09:20:47.656Z,15.37
2023-05-04T09:23:17.738Z,15.44
2023-05-04T09:25:55.671Z,15.38
2023-05-04T09:28:39.109Z,15.54
2023-05-04T09:31:07.636Z,15.60
2023-05-04T09:33:34.890Z,15.64
2023-05-04T09:36:17.033Z,15.75
2023-05-04T09:38:44.332Z,15.78
2023-05-04T09:41:11.769Z,15.90
2023-05-04T09:43:40.694Z,15.89
2023-05-04T09:46:16.135Z,16.03
2023-05-04T09:48:55.606Z,16.08
2023-05-04T09:51:24.944Z,16.14
2023-05-04T09:53:52.463Z,16.25
2023-05-04T09:56:42.207Z,16.27
2023-05-04T09:59:10.734Z,16.34
2023-05-04T10:01:37.861Z,16.45
2023-05-04T10:04:06.116Z,16.43
2023-05-04T10:06:33.128Z,16.48
2023-05-04T10:09:00.740Z,16.54
2023-05-04T10:11:28.787Z,16.59
2023-05-04T10:13:57.225Z,16.68
2023-05-04T10:16:46.861Z,16.73
2023-05-04T10:19:59.040Z,16.79
2023-05-04T10:22:47.352Z,16.91
2023-05-04T10:25:42.759Z,16.94
2023-05-04T10:28:47.300Z,16.99
2023-05-04T10:31:14.651Z,17.03
2023-05-04T10:33:43.186Z,16.97
2023-05-04T10:36:11.564Z,17.17
2023-05-04T10:38:40.463Z,17.19
2023-05-04T10:41:22.748Z,17.28
2023-05-04T10:43:52.964Z,17.37
2023-05-04T10:46:23.976Z,17.46
2023-05-04T10:48:51.453Z,17.51
2023-05-04T10:51:32.757Z,17.68
2023-05-04T10:54:03.264Z,17.72
2023-05-04T10:56:30.476Z,17.85
2023-05-04T10:59:08.662Z,17.99
2023-05-04T11:01:44.784Z,18.12
2023-05-04T11:04:24.468Z,18.23
2023-05-04T11:07:09.169Z,18.27
2023-05-04T11:09:41.916Z,18.51
2023-05-04T11:12:12.664Z,18.70
2023-05-04T11:14:43.631Z,18.75
2023-05-04T11:17:27.606Z,18.87
2023-05-04T11:19:55.460Z,19.35
2023-05-04T11:22:22.462Z,19.33
2023-05-04T11:24:49.273Z,19.42
2023-05-04T11:27:26.212Z,19.60
2023-05-04T11:30:04.356Z,19.73
2023-05-04T11:32:35.662Z,20.34
2023-05-04T11:35:04.375Z,20.53
2023-05-04T11:37:39.140Z,20.69
2023-05-04T11:40:14.055Z,21.29
2023-05-04T11:42:43.104Z,22.27
2023-05-04T11:45:19.528Z,22.17
2023-05-04T11:47:47.434Z,23.42
2023-05-04T11:50:17.828Z,23.95
2023-05-04T11:52:45.489Z,23.32
2023-05-04T11:55:30.573Z,23.01
2023-05-04T11:58:11.913Z,22.80
2023-05-04T12:00:39.925Z,22.69
2023-05-04T12:05:56.586Z,22.48
2023-05-04T12:08:42.157Z,23.61
2023-05-04T12:11:16.582Z,23.77
2023-05-04T12:13:45.773Z,22.44
2023-05-04T12:16:20.338Z,22.13
2023-05-04T12:18:48.375Z,21.66
2023-05-04T12:21:21.392Z,21.80
2023-05-04T12:23:48.646Z,21.53
2023-05-04T12:26:18.014Z,21.42
2023-05-04T12:28:47.273Z,21.28
2023-05-04T12:31:14.394Z,21.31
2023-05-04T12:33:41.276Z,21.19
2023-05-04T12:36:08.664Z,21.13
2023-05-04T12:38:35.642Z,21.09
2023-05-04T12:41:04.296Z,21.10
2023-05-04T12:43:32.991Z,21.14
2023-05-04T12:46:00.095Z,21.23
2023-05-04T12:48:28.989Z,20.91
2023-05-04T12:50:56.076Z,21.29
2023-05-04T12:53:25.622Z,21.12
2023-05-04T12:55:52.561Z,21.81
2023-05-04T12:58:19.381Z,21.43
2023-05-04T13:00:46.398Z,21.28
2023-05-04T13:03:13.744Z,21.28
2023-05-04T13:05:40.780Z,21.18
2023-05-04T13:08:08.461Z,21.20
2023-05-04T13:10:35.701Z,21.09
2023-05-04T13:13:04.683Z,21.08
2023-05-04T13:15:33.039Z,21.11
2023-05-04T13:18:00.484Z,21.02
2023-05-04T13:20:27.644Z,21.06
2023-05-04T13:22:58.211Z,21.56
2023-05-04T13:25:25.634Z,21.42
2023-05-04T13:27:52.799Z,21.36
2023-05-04T13:30:21.520Z,21.34
2023-05-04T13:32:49.104Z,21.29
2023-05-04T13:35:16.309Z,21.27
2023-05-04T13:37:43.171Z,21.25
2023-05-04T13:40:10.879Z,21.14
2023-05-04T13:42:38.030Z,21.10
2023-05-04T13:45:07.016Z,21.12
2023-05-04T13:47:37.101Z,21.17
2023-05-04T13:50:04.704Z,21.16
2023-05-04T13:52:32.411Z,21.22
2023-05-04T13:54:59.820Z,21.21
2023-05-04T13:57:29.293Z,21.10
2023-05-04T14:00:06.460Z,21.17
2023-05-04T14:02:34.869Z,21.19
2023-05-04T14:05:03.236Z,21.23
2023-05-04T14:07:30.203Z,21.22
2023-05-04T14:09:57.090Z,21.22
2023-05-04T14:12:24.072Z,21.16
2023-05-04T14:14:51.310Z,21.13
2023-05-04T14:17:18.512Z,21.02
2023-05-04T14:19:45.729Z,21.21
2023-05-04T14:22:12.719Z,21.23
2023-05-04T14:24:39.576Z,21.26
2023-05-04T14:27:06.464Z,21.32
2023-05-04T14:29:34.305Z,21.32
2023-05-04T14:32:01.309Z,21.33
2023-05-04T14:34:31.102Z,21.34
2023-05-04T14:36:57.998Z,21.30
2023-05-04T14:39:25.021Z,21.34
2023-05-04T14:41:53.062Z,21.20
2023-05-04T14:44:22.440Z,21.38
2023-05-04T14:46:49.354Z,21.46
2023-05-04T14:49:28.381Z,21.51
2023-05-04T14:52:03.130Z,21.54
2023-05-04T14:54:30.025Z,21.58
2023-05-04T14:56:56.944Z,21.59
2023-05-04T14:59:23.788Z,21.58
2023-05-04T15:01:50.795Z,21.61
2023-05-04T15:04:17.686Z,21.62
2023-05-04T15:06:44.574Z,21.60
2023-05-04T15:09:11.557Z,21.65
2023-05-04T15:11:38.648Z,21.64
2023-05-04T15:14:05.537Z,21.64
2023-05-04T15:16:33.003Z,21.66
2023-05-04T15:19:00.312Z,21.65
2023-05-04T15:21:27.863Z,21.68
2023-05-04T15:23:55.150Z,21.66
2023-05-04T15:26:22.283Z,21.68
2023-05-04T15:28:49.518Z,21.73
2023-05-04T15:31:18.381Z,21.74
2023-05-04T15:33:45.435Z,21.69
2023-05-04T15:36:12.271Z,21.75
2023-05-04T15:38:39.262Z,21.75
2023-05-04T15:41:06.625Z,21.74
2023-05-04T15:43:34.195Z,21.69
2023-05-04T15:46:01.227Z,21.76
2023-05-04T15:48:28.094Z,21.77
2023-05-04T15:50:55.669Z,21.74
2023-05-04T15:53:22.528Z,21.76
2023-05-04T15:55:51.063Z,21.71
2023-05-04T15:58:18.027Z,21.73
2023-05-04T16:00:45.064Z,21.73
2023-05-04T16:03:12.239Z,21.67
2023-05-04T16:05:39.265Z,21.69
2023-05-04T16:08:06.073Z,21.68
2023-05-04T16:10:33.897Z,21.62
2023-05-04T16:13:05.177Z,21.66
2023-05-04T16:15:32.066Z,21.68
2023-05-04T16:17:58.985Z,21.67
2023-05-04T16:20:28.979Z,21.67
2023-05-04T16:22:55.978Z,21.64
2023-05-04T16:25:23.297Z,21.52
2023-05-04T16:27:50.288Z,21.66
2023-05-04T16:30:17.281Z,21.67
2023-05-04T16:32:44.731Z,21.69
2023-05-04T16:35:11.652Z,21.60
2023-05-04T16:37:38.987Z,21.63
2023-05-04T16:40:16.723Z,21.61
2023-05-04T16:42:44.745Z,21.52
2023-05-04T16:45:13.796Z,21.51
2023-05-04T16:47:44.661Z,21.57
2023-05-04T16:50:13.919Z,21.52
2023-05-04T16:52:41.116Z,21.49
2023-05-04T16:55:11.869Z,21.47
2023-05-04T16:57:39.394Z,21.45
2023-05-04T17:00:07.851Z,21.39
2023-05-04T17:02:35.944Z,21.41
2023-05-04T17:05:06.491Z,21.32
2023-05-04T17:07:34.330Z,21.29
2023-05-04T17:10:01.482Z,21.36
2023-05-04T17:12:28.888Z,21.36
2023-05-04T17:14:55.948Z,21.33
2023-05-04T17:17:22.874Z,21.34
2023-05-04T17:19:49.849Z,21.31
2023-05-04T17:22:17.366Z,21.30
2023-05-04T17:24:45.651Z,21.26
2023-05-04T17:27:13.104Z,21.18
2023-05-04T17:29:41.073Z,21.09
2023-05-04T17:32:08.244Z,21.15
2023-05-04T17:34:35.996Z,21.16
2023-05-04T17:37:02.818Z,20.98
2023-05-04T17:39:32.803Z,21.07
2023-05-04T17:41:59.866Z,21.07
2023-05-04T17:44:28.737Z,21.04
2023-05-04T17:46:56.002Z,21.02
2023-05-04T17:49:22.906Z,20.91
2023-05-04T17:51:49.803Z,20.92
2023-05-04T17:54:17.204Z,20.90
2023-05-04T17:56:44.199Z,20.84
2023-05-04T17:59:11.152Z,20.89
2023-05-04T18:01:38.136Z,20.85
2023-05-04T18:04:05.171Z,20.74
2023-05-04T18:06:33.053Z,20.77
2023-05-04T18:09:01.074Z,20.68
2023-05-04T18:11:28.311Z,20.71
2023-05-04T18:13:56.517Z,20.70
2023-05-04T18:16:24.607Z,20.65
2023-05-04T18:18:52.101Z,20.61
2023-05-04T18:21:18.997Z,20.57
2023-05-04T18:23:46.363Z,20.53
2023-05-04T18:26:22.218Z,20.50
2023-05-04T18:28:49.344Z,20.43
2023-05-04T18:31:16.360Z,20.42
2023-05-04T18:33:43.431Z,20.37
2023-05-04T18:36:10.433Z,20.35
2023-05-04T18:38:37.658Z,20.27
2023-05-04T18:41:04.936Z,20.19
2023-05-04T18:43:31.895Z,20.20
2023-05-04T18:46:05.967Z,20.09
2023-05-04T18:48:32.860Z,20.09
2023-05-04T18:50:59.729Z,20.09
2023-05-04T18:53:27.215Z,20.02
2023-05-04T18:56:04.888Z,19.98
2023-05-04T18:58:32.508Z,19.92
2023-05-04T19:00:59.451Z,19.85
2023-05-04T19:03:26.562Z,19.81
2023-05-04T19:05:54.287Z,19.74
2023-05-04T19:08:21.407Z,19.64
2023-05-04T19:10:49.343Z,19.67
2023-05-04T19:13:17.031Z,19.62
2023-05-04T19:15:44.244Z,19.57
2023-05-04T19:18:11.993Z,19.52
2023-05-04T19:20:39.913Z,19.46
2023-05-04T19:23:06.854Z,19.43
2023-05-04T19:25:35.163Z,19.37
2023-05-04T19:28:08.441Z,19.29
2023-05-04T19:30:39.927Z,19.31
2023-05-04T19:33:08.457Z,19.19
2023-05-04T19:35:36.077Z,19.19
2023-05-04T19:38:05.994Z,19.20
2023-05-04T19:40:33.847Z,19.21
2023-05-04T19:43:00.897Z,19.18
2023-05-04T19:45:27.693Z,19.13
2023-05-04T19:47:54.528Z,19.01
2023-05-04T19:50:21.447Z,19.04
2023-05-04T19:52:48.344Z,19.04
2023-05-04T19:55:16.516Z,19.01
2023-05-04T19:57:44.039Z,18.89
2023-05-04T20:00:12.701Z,18.90
2023-05-04T20:02:39.788Z,18.89
2023-05-04T20:05:06.896Z,18.79
2023-05-04T20:07:33.717Z,18.75
2023-05-04T20:10:00.585Z,18.79
2023-05-04T20:12:27.475Z,18.73
2023-05-04T20:14:54.434Z,18.70
2023-05-04T20:17:21.451Z,18.65
2023-05-04T20:19:48.321Z,18.66
2023-05-04T20:22:15.531Z,18.58
2023-05-04T20:24:42.639Z,18.57
2023-05-04T20:27:09.459Z,18.50
2023-05-04T20:29:36.273Z,18.40
2023-05-04T20:32:05.108Z,18.45
2023-05-04T20:34:32.288Z,18.34
2023-05-04T20:36:59.114Z,18.29
2023-05-04T20:39:25.984Z,18.19
2023-05-04T20:41:53.059Z,18.22
2023-05-04T20:44:19.945Z,18.23
2023-05-04T20:46:46.774Z,18.13
2023-05-04T20:49:14.145Z,18.11
2023-05-04T20:51:41.106Z,18.08
2023-05-04T20:54:08.308Z,18.06
2023-05-04T20:56:35.185Z,17.99
2023-05-04T20:59:01.992Z,17.92
2023-05-04T21:01:29.709Z,17.85
2023-05-04T21:03:56.932Z,17.86
2023-05-04T21:06:24.538Z,17.80
2023-05-04T21:08:51.370Z,17.64
2023-05-04T21:11:18.271Z,17.71
2023-05-04T21:13:45.311Z,17.67
2023-05-04T21:16:12.229Z,17.69
2023-05-04T21:18:39.253Z,17.61
2023-05-04T21:21:06.281Z,17.61
2023-05-04T21:23:33.160Z,17.60
2023-05-04T21:26:04.028Z,17.63
2023-05-04T21:28:32.076Z,17.64
2023-05-04T21:30:59.327Z,17.58
2023-05-04T21:33:26.542Z,17.52
2023-05-04T21:35:53.448Z,17.52
2023-05-04T21:38:22.019Z,17.51
2023-05-04T21:40:49.306Z,17.48
2023-05-04T21:43:16.313Z,17.42
2023-05-04T21:45:43.347Z,17.40
2023-05-04T21:48:10.396Z,17.31
2023-05-04T21:50:37.420Z,17.26
2023-05-04T21:53:04.234Z,17.26
2023-05-04T21:55:31.156Z,17.15
2023-05-04T21:57:57.948Z,17.14
2023-05-04T22:00:24.942Z,17.12
2023-05-04T22:02:54.873Z,16.97
2023-05-04T22:05:22.520Z,17.03
2023-05-04T22:07:49.889Z,17.02
2023-05-04T22:10:17.213Z,16.90
2023-05-04T22:12:44.112Z,16.98
2023-05-04T22:15:11.585Z,16.84
2023-05-04T22:17:38.784Z,16.67
2023-05-04T22:20:06.858Z,16.85
2023-05-04T22:22:33.996Z,16.84
2023-05-04T22:25:00.885Z,16.82
2023-05-04T22:27:27.933Z,16.84
2023-05-04T22:29:54.715Z,16.83
2023-05-04T22:32:21.525Z,16.68
2023-05-04T22:34:48.339Z,16.69
2023-05-04T22:37:15.473Z,16.67
2023-05-04T22:39:42.338Z,16.66
2023-05-04T22:42:09.262Z,16.73
2023-05-04T22:44:36.211Z,16.74
2023-05-04T22:47:03.877Z,16.56
2023-05-04T22:49:30.688Z,16.72
2023-05-04T22:51:57.493Z,16.78
2023-05-04T22:54:24.405Z,16.76
2023-05-04T22:56:51.436Z,16.77
2023-05-04T22:59:18.231Z,16.75
2023-05-04T23:01:45.308Z,16.74
2023-05-04T23:04:12.281Z,16.70
2023-05-04T23:06:39.110Z,16.71
2023-05-04T23:09:06.043Z,16.69
2023-05-04T23:11:33.345Z,16.64
2023-05-04T23:14:00.211Z,16.36
2023-05-04T23:16:27.379Z,16.59
2023-05-04T23:18:54.281Z,16.60
2023-05-04T23:21:21.354Z,16.57
2023-05-04T23:23:51.757Z,16.57
2023-05-04T23:26:18.785Z,16.55
2023-05-04T23:28:45.881Z,16.46
2023-05-04T23:31:12.750Z,16.48
2023-05-04T23:33:39.662Z,16.42
2023-05-04T23:36:06.820Z,16.46
2023-05-04T23:38:33.838Z,16.45
2023-05-04T23:41:04.373Z,16.42
2023-05-04T23:43:31.969Z,16.25
2023-05-04T23:46:03.674Z,16.34
2023-05-04T23:48:32.205Z,16.31
2023-05-04T23:51:06.411Z,16.24
2023-05-04T23:53:33.962Z,16.25
2023-05-04T23:56:06.163Z,16.23
2023-05-04T23:58:34.523Z,16.19
